sensor_id;sensor_type;location;lat;lon;timestamp;temperature;humidity
52743;DHT22;55583;53.012;6.556;2022-08-14T00:02:04;21.30;92.50
52743;DHT22;55583;53.012;6.556;2022-08-14T00:04:31;21.20;93.00
52743;DHT22;55583;53.012;6.556;2022-08-14T00:06:57;21.20;93.50
52743;DHT22;55583;53.012;6.556;2022-08-14T00:09:25;21.10;93.90
52743;DHT22;55583;53.012;6.556;2022-08-14T00:11:51;21.10;94.40
52743;DHT22;55583;53.012;6.556;2022-08-14T00:14:17;21.00;95.20
52743;DHT22;55583;53.012;6.556;2022-08-14T00:16:43;21.00;95.70
52743;DHT22;55583;53.012;6.556;2022-08-14T00:19:09;21.00;96.30
52743;DHT22;55583;53.012;6.556;2022-08-14T00:21:34;20.90;96.70
52743;DHT22;55583;53.012;6.556;2022-08-14T00:24:01;20.90;97.40
52743;DHT22;55583;53.012;6.556;2022-08-14T00:26:28;20.80;97.90
52743;DHT22;55583;53.012;6.556;2022-08-14T00:28:55;20.80;98.30
52743;DHT22;55583;53.012;6.556;2022-08-14T00:31:21;20.80;98.80
52743;DHT22;55583;53.012;6.556;2022-08-14T00:33:47;20.70;99.40
52743;DHT22;55583;53.012;6.556;2022-08-14T00:36:13;20.70;99.70
52743;DHT22;55583;53.012;6.556;2022-08-14T00:38:39;20.60;99.90
52743;DHT22;55583;53.012;6.556;2022-08-14T00:41:06;20.60;99.90
52743;DHT22;55583;53.012;6.556;2022-08-14T00:43:36;20.50;99.90
52743;DHT22;55583;53.012;6.556;2022-08-14T00:46:06;20.50;99.90
52743;DHT22;55583;53.012;6.556;2022-08-14T00:48:32;20.40;99.90
52743;DHT22;55583;53.012;6.556;2022-08-14T00:50:59;20.40;99.90
52743;DHT22;55583;53.012;6.556;2022-08-14T00:53:25;20.40;99.90
52743;DHT22;55583;53.012;6.556;2022-08-14T00:55:52;20.30;99.90
52743;DHT22;55583;53.012;6.556;2022-08-14T00:58:20;20.30;99.90
52743;DHT22;55583;53.012;6.556;2022-08-14T01:01:06;20.30;99.90
52743;DHT22;55583;53.012;6.556;2022-08-14T01:03:36;20.20;99.90
52743;DHT22;55583;53.012;6.556;2022-08-14T01:06:06;20.20;99.90
52743;DHT22;55583;53.012;6.556;2022-08-14T01:08:34;20.20;99.90
52743;DHT22;55583;53.012;6.556;2022-08-14T01:11:01;20.20;99.90
52743;DHT22;55583;53.012;6.556;2022-08-14T01:13:38;20.20;99.90
52743;DHT22;55583;53.012;6.556;2022-08-14T01:16:07;20.20;99.90
52743;DHT22;55583;53.012;6.556;2022-08-14T01:18:33;20.10;99.90
52743;DHT22;55583;53.012;6.556;2022-08-14T01:21:33;20.10;99.90
52743;DHT22;55583;53.012;6.556;2022-08-14T01:23:59;20.10;99.90
52743;DHT22;55583;53.012;6.556;2022-08-14T01:26:27;20.10;99.90
52743;DHT22;55583;53.012;6.556;2022-08-14T01:28:56;20.00;99.90
52743;DHT22;55583;53.012;6.556;2022-08-14T01:31:25;20.00;99.90
52743;DHT22;55583;53.012;6.556;2022-08-14T01:33:53;20.00;99.90
52743;DHT22;55583;53.012;6.556;2022-08-14T01:36:19;20.00;99.90
52743;DHT22;55583;53.012;6.556;2022-08-14T01:38:46;20.00;99.90
52743;DHT22;55583;53.012;6.556;2022-08-14T01:41:18;20.00;99.90
52743;DHT22;55583;53.012;6.556;2022-08-14T01:43:55;20.00;99.90
52743;DHT22;55583;53.012;6.556;2022-08-14T01:46:28;20.00;99.90
52743;DHT22;55583;53.012;6.556;2022-08-14T01:48:55;20.10;99.90
52743;DHT22;55583;53.012;6.556;2022-08-14T01:51:23;20.10;99.90
52743;DHT22;55583;53.012;6.556;2022-08-14T01:54:17;20.00;99.90
52743;DHT22;55583;53.012;6.556;2022-08-14T01:56:47;20.00;99.90
52743;DHT22;55583;53.012;6.556;2022-08-14T01:59:30;20.00;99.90
52743;DHT22;55583;53.012;6.556;2022-08-14T02:01:59;20.00;99.90
52743;DHT22;55583;53.012;6.556;2022-08-14T02:04:33;20.00;99.90
52743;DHT22;55583;53.012;6.556;2022-08-14T02:07:00;19.90;99.90
52743;DHT22;55583;53.012;6.556;2022-08-14T02:09:28;20.00;99.90
52743;DHT22;55583;53.012;6.556;2022-08-14T02:12:00;19.90;99.90
52743;DHT22;55583;53.012;6.556;2022-08-14T02:14:26;19.90;99.90
52743;DHT22;55583;53.012;6.556;2022-08-14T02:16:52;20.00;99.90
52743;DHT22;55583;53.012;6.556;2022-08-14T02:19:21;19.90;99.90
52743;DHT22;55583;53.012;6.556;2022-08-14T02:21:49;20.00;99.90
52743;DHT22;55583;53.012;6.556;2022-08-14T02:24:16;19.80;99.90
52743;DHT22;55583;53.012;6.556;2022-08-14T02:26:43;19.90;99.90
52743;DHT22;55583;53.012;6.556;2022-08-14T02:29:16;19.80;99.90
52743;DHT22;55583;53.012;6.556;2022-08-14T02:31:49;19.80;99.90
52743;DHT22;55583;53.012;6.556;2022-08-14T02:34:21;19.80;99.90
52743;DHT22;55583;53.012;6.556;2022-08-14T02:36:50;19.80;99.90
52743;DHT22;55583;53.012;6.556;2022-08-14T02:39:16;19.70;99.90
52743;DHT22;55583;53.012;6.556;2022-08-14T02:41:42;19.70;99.90
52743;DHT22;55583;53.012;6.556;2022-08-14T02:44:10;19.70;99.90
52743;DHT22;55583;53.012;6.556;2022-08-14T02:46:39;19.70;99.90
52743;DHT22;55583;53.012;6.556;2022-08-14T02:49:09;19.70;99.90
52743;DHT22;55583;53.012;6.556;2022-08-14T02:51:36;19.70;99.90
52743;DHT22;55583;53.012;6.556;2022-08-14T02:54:02;19.70;99.90
52743;DHT22;55583;53.012;6.556;2022-08-14T02:56:27;19.60;99.90
52743;DHT22;55583;53.012;6.556;2022-08-14T02:58:55;19.60;99.90
52743;DHT22;55583;53.012;6.556;2022-08-14T03:01:23;19.60;99.90
52743;DHT22;55583;53.012;6.556;2022-08-14T03:03:49;19.60;99.90
52743;DHT22;55583;53.012;6.556;2022-08-14T03:06:17;19.60;99.90
52743;DHT22;55583;53.012;6.556;2022-08-14T03:08:45;19.60;99.90
52743;DHT22;55583;53.012;6.556;2022-08-14T03:11:13;19.60;99.90
52743;DHT22;55583;53.012;6.556;2022-08-14T03:13:42;19.60;99.90
52743;DHT22;55583;53.012;6.556;2022-08-14T03:16:16;19.50;99.90
52743;DHT22;55583;53.012;6.556;2022-08-14T03:18:43;19.60;99.90
52743;DHT22;55583;53.012;6.556;2022-08-14T03:21:12;19.50;99.90
52743;DHT22;55583;53.012;6.556;2022-08-14T03:23:44;19.50;99.90
52743;DHT22;55583;53.012;6.556;2022-08-14T03:26:12;19.50;99.90
52743;DHT22;55583;53.012;6.556;2022-08-14T03:28:38;19.40;99.90
52743;DHT22;55583;53.012;6.556;2022-08-14T03:31:07;19.40;99.90
52743;DHT22;55583;53.012;6.556;2022-08-14T03:33:34;19.30;99.90
52743;DHT22;55583;53.012;6.556;2022-08-14T03:36:03;19.30;99.90
52743;DHT22;55583;53.012;6.556;2022-08-14T03:38:33;19.20;99.90
52743;DHT22;55583;53.012;6.556;2022-08-14T03:40:58;19.30;99.90
52743;DHT22;55583;53.012;6.556;2022-08-14T03:43:24;19.30;99.90
52743;DHT22;55583;53.012;6.556;2022-08-14T03:45:51;19.20;99.90
52743;DHT22;55583;53.012;6.556;2022-08-14T03:48:17;19.20;99.90
52743;DHT22;55583;53.012;6.556;2022-08-14T03:50:48;19.20;99.90
52743;DHT22;55583;53.012;6.556;2022-08-14T03:53:17;19.10;99.90
52743;DHT22;55583;53.012;6.556;2022-08-14T03:55:45;19.10;99.90
52743;DHT22;55583;53.012;6.556;2022-08-14T03:58:11;19.10;99.90
52743;DHT22;55583;53.012;6.556;2022-08-14T04:00:38;19.10;99.90
52743;DHT22;55583;53.012;6.556;2022-08-14T04:03:05;19.00;99.90
52743;DHT22;55583;53.012;6.556;2022-08-14T04:05:32;19.00;99.90
52743;DHT22;55583;53.012;6.556;2022-08-14T04:07:58;19.00;99.90
52743;DHT22;55583;53.012;6.556;2022-08-14T04:10:25;19.00;99.90
52743;DHT22;55583;53.012;6.556;2022-08-14T04:12:51;18.90;99.90
52743;DHT22;55583;53.012;6.556;2022-08-14T04:15:19;18.90;99.90
52743;DHT22;55583;53.012;6.556;2022-08-14T04:17:46;18.90;99.90
52743;DHT22;55583;53.012;6.556;2022-08-14T04:20:12;18.90;99.90
52743;DHT22;55583;53.012;6.556;2022-08-14T04:22:38;18.90;99.90
52743;DHT22;55583;53.012;6.556;2022-08-14T04:25:08;18.80;99.90
52743;DHT22;55583;53.012;6.556;2022-08-14T04:27:34;18.80;99.90
52743;DHT22;55583;53.012;6.556;2022-08-14T04:30:02;18.80;99.90
52743;DHT22;55583;53.012;6.556;2022-08-14T04:32:27;18.70;99.90
52743;DHT22;55583;53.012;6.556;2022-08-14T04:34:53;18.80;99.90
52743;DHT22;55583;53.012;6.556;2022-08-14T04:37:23;18.80;99.90
52743;DHT22;55583;53.012;6.556;2022-08-14T04:40:08;18.70;99.90
52743;DHT22;55583;53.012;6.556;2022-08-14T04:42:53;18.60;99.90
52743;DHT22;55583;53.012;6.556;2022-08-14T04:45:37;18.60;99.90
52743;DHT22;55583;53.012;6.556;2022-08-14T04:48:10;18.60;99.90
52743;DHT22;55583;53.012;6.556;2022-08-14T04:50:47;18.60;99.90
52743;DHT22;55583;53.012;6.556;2022-08-14T04:53:34;18.70;99.90
52743;DHT22;55583;53.012;6.556;2022-08-14T04:56:01;18.60;99.90
52743;DHT22;55583;53.012;6.556;2022-08-14T04:58:29;18.60;99.90
52743;DHT22;55583;53.012;6.556;2022-08-14T05:00:56;18.60;99.90
52743;DHT22;55583;53.012;6.556;2022-08-14T05:03:24;18.60;99.90
52743;DHT22;55583;53.012;6.556;2022-08-14T05:05:53;18.70;99.90
52743;DHT22;55583;53.012;6.556;2022-08-14T05:08:19;18.70;99.90
52743;DHT22;55583;53.012;6.556;2022-08-14T05:10:48;18.80;99.90
52743;DHT22;55583;53.012;6.556;2022-08-14T05:13:23;18.80;99.90
52743;DHT22;55583;53.012;6.556;2022-08-14T05:15:51;18.80;99.90
52743;DHT22;55583;53.012;6.556;2022-08-14T05:18:20;18.80;99.90
52743;DHT22;55583;53.012;6.556;2022-08-14T05:20:47;18.80;99.90
52743;DHT22;55583;53.012;6.556;2022-08-14T05:23:15;18.90;99.90
52743;DHT22;55583;53.012;6.556;2022-08-14T05:25:43;18.90;99.90
52743;DHT22;55583;53.012;6.556;2022-08-14T05:28:11;19.00;99.90
52743;DHT22;55583;53.012;6.556;2022-08-14T05:30:38;19.00;99.90
52743;DHT22;55583;53.012;6.556;2022-08-14T05:33:07;19.00;99.90
52743;DHT22;55583;53.012;6.556;2022-08-14T05:35:32;19.00;99.90
52743;DHT22;55583;53.012;6.556;2022-08-14T05:37:59;19.20;99.90
52743;DHT22;55583;53.012;6.556;2022-08-14T05:40:26;19.50;99.90
52743;DHT22;55583;53.012;6.556;2022-08-14T05:42:51;19.70;99.90
52743;DHT22;55583;53.012;6.556;2022-08-14T05:45:17;20.00;99.90
52743;DHT22;55583;53.012;6.556;2022-08-14T05:47:44;20.20;99.90
52743;DHT22;55583;53.012;6.556;2022-08-14T05:50:12;20.50;99.90
52743;DHT22;55583;53.012;6.556;2022-08-14T05:52:38;20.80;99.90
52743;DHT22;55583;53.012;6.556;2022-08-14T05:55:08;21.10;99.90
52743;DHT22;55583;53.012;6.556;2022-08-14T05:57:49;21.40;99.90
52743;DHT22;55583;53.012;6.556;2022-08-14T06:00:16;21.60;99.90
52743;DHT22;55583;53.012;6.556;2022-08-14T06:02:43;21.90;99.90
52743;DHT22;55583;53.012;6.556;2022-08-14T06:05:08;22.10;99.90
52743;DHT22;55583;53.012;6.556;2022-08-14T06:07:35;22.30;99.90
52743;DHT22;55583;53.012;6.556;2022-08-14T06:10:02;22.60;99.90
52743;DHT22;55583;53.012;6.556;2022-08-14T06:12:28;22.90;99.90
52743;DHT22;55583;53.012;6.556;2022-08-14T06:14:53;23.20;99.00
52743;DHT22;55583;53.012;6.556;2022-08-14T06:17:19;23.50;97.40
52743;DHT22;55583;53.012;6.556;2022-08-14T06:19:44;23.80;96.00
52743;DHT22;55583;53.012;6.556;2022-08-14T06:22:10;24.10;94.60
52743;DHT22;55583;53.012;6.556;2022-08-14T06:24:36;24.50;93.10
52743;DHT22;55583;53.012;6.556;2022-08-14T06:27:02;24.90;91.70
52743;DHT22;55583;53.012;6.556;2022-08-14T06:29:28;25.20;90.10
52743;DHT22;55583;53.012;6.556;2022-08-14T06:31:54;25.60;87.30
52743;DHT22;55583;53.012;6.556;2022-08-14T06:34:19;26.00;84.70
52743;DHT22;55583;53.012;6.556;2022-08-14T06:36:45;26.40;82.80
52743;DHT22;55583;53.012;6.556;2022-08-14T06:39:10;26.80;79.80
52743;DHT22;55583;53.012;6.556;2022-08-14T06:41:38;27.20;78.40
52743;DHT22;55583;53.012;6.556;2022-08-14T06:44:04;27.70;76.20
52743;DHT22;55583;53.012;6.556;2022-08-14T06:46:30;28.10;74.40
52743;DHT22;55583;53.012;6.556;2022-08-14T06:48:55;28.50;72.30
52743;DHT22;55583;53.012;6.556;2022-08-14T06:51:21;27.60;71.40
52743;DHT22;55583;53.012;6.556;2022-08-14T06:53:47;27.00;72.40
52743;DHT22;55583;53.012;6.556;2022-08-14T06:56:13;26.30;73.30
52743;DHT22;55583;53.012;6.556;2022-08-14T06:58:41;25.80;75.10
52743;DHT22;55583;53.012;6.556;2022-08-14T07:01:07;25.40;76.80
52743;DHT22;55583;53.012;6.556;2022-08-14T07:03:51;24.90;78.50
52743;DHT22;55583;53.012;6.556;2022-08-14T07:06:35;24.50;80.70
52743;DHT22;55583;53.012;6.556;2022-08-14T07:09:01;24.20;82.20
52743;DHT22;55583;53.012;6.556;2022-08-14T07:11:29;24.10;84.50
52743;DHT22;55583;53.012;6.556;2022-08-14T07:13:54;24.10;86.00
52743;DHT22;55583;53.012;6.556;2022-08-14T07:16:20;23.90;86.30
52743;DHT22;55583;53.012;6.556;2022-08-14T07:18:47;24.00;87.70
52743;DHT22;55583;53.012;6.556;2022-08-14T07:21:12;24.00;88.20
52743;DHT22;55583;53.012;6.556;2022-08-14T07:23:38;23.90;88.50
52743;DHT22;55583;53.012;6.556;2022-08-14T07:26:05;23.80;89.10
52743;DHT22;55583;53.012;6.556;2022-08-14T07:28:34;23.80;90.10
52743;DHT22;55583;53.012;6.556;2022-08-14T07:31:03;23.70;90.30
52743;DHT22;55583;53.012;6.556;2022-08-14T07:33:34;23.70;90.40
52743;DHT22;55583;53.012;6.556;2022-08-14T07:36:05;23.70;90.20
52743;DHT22;55583;53.012;6.556;2022-08-14T07:38:31;23.80;90.10
52743;DHT22;55583;53.012;6.556;2022-08-14T07:40:56;23.80;90.40
52743;DHT22;55583;53.012;6.556;2022-08-14T07:43:24;23.80;90.40
52743;DHT22;55583;53.012;6.556;2022-08-14T07:45:50;23.90;90.10
52743;DHT22;55583;53.012;6.556;2022-08-14T07:48:16;23.90;90.20
52743;DHT22;55583;53.012;6.556;2022-08-14T07:50:42;23.90;90.20
52743;DHT22;55583;53.012;6.556;2022-08-14T07:53:08;23.90;90.40
52743;DHT22;55583;53.012;6.556;2022-08-14T07:55:34;24.00;90.30
52743;DHT22;55583;53.012;6.556;2022-08-14T07:58:01;24.00;90.40
52743;DHT22;55583;53.012;6.556;2022-08-14T08:00:26;24.10;90.60
52743;DHT22;55583;53.012;6.556;2022-08-14T08:02:54;24.10;90.60
52743;DHT22;55583;53.012;6.556;2022-08-14T08:05:21;24.20;90.20
52743;DHT22;55583;53.012;6.556;2022-08-14T08:07:49;24.30;90.30
52743;DHT22;55583;53.012;6.556;2022-08-14T08:10:18;24.30;90.20
52743;DHT22;55583;53.012;6.556;2022-08-14T08:13:09;24.40;90.00
52743;DHT22;55583;53.012;6.556;2022-08-14T08:15:42;24.50;90.10
52743;DHT22;55583;53.012;6.556;2022-08-14T08:18:09;24.60;89.60
52743;DHT22;55583;53.012;6.556;2022-08-14T08:20:39;24.60;88.40
52743;DHT22;55583;53.012;6.556;2022-08-14T08:23:06;24.70;87.60
52743;DHT22;55583;53.012;6.556;2022-08-14T08:25:40;24.80;86.60
52743;DHT22;55583;53.012;6.556;2022-08-14T08:28:14;24.80;86.40
52743;DHT22;55583;53.012;6.556;2022-08-14T08:30:46;24.90;86.30
52743;DHT22;55583;53.012;6.556;2022-08-14T08:33:12;25.00;85.40
52743;DHT22;55583;53.012;6.556;2022-08-14T08:35:39;25.10;85.10
52743;DHT22;55583;53.012;6.556;2022-08-14T08:38:07;25.20;84.80
52743;DHT22;55583;53.012;6.556;2022-08-14T08:40:38;25.20;84.00
52743;DHT22;55583;53.012;6.556;2022-08-14T08:43:06;25.30;82.80
52743;DHT22;55583;53.012;6.556;2022-08-14T08:45:34;25.30;82.20
52743;DHT22;55583;53.012;6.556;2022-08-14T08:48:01;25.40;81.70
52743;DHT22;55583;53.012;6.556;2022-08-14T08:50:35;25.50;80.90
52743;DHT22;55583;53.012;6.556;2022-08-14T08:53:03;25.60;81.40
52743;DHT22;55583;53.012;6.556;2022-08-14T08:55:33;25.80;80.10
52743;DHT22;55583;53.012;6.556;2022-08-14T08:58:01;25.80;79.30
52743;DHT22;55583;53.012;6.556;2022-08-14T09:00:29;25.90;79.00
52743;DHT22;55583;53.012;6.556;2022-08-14T09:03:01;25.90;77.60
52743;DHT22;55583;53.012;6.556;2022-08-14T09:05:28;26.00;77.10
52743;DHT22;55583;53.012;6.556;2022-08-14T09:08:08;26.10;77.10
52743;DHT22;55583;53.012;6.556;2022-08-14T09:10:34;26.20;75.90
52743;DHT22;55583;53.012;6.556;2022-08-14T09:13:00;26.30;75.80
52743;DHT22;55583;53.012;6.556;2022-08-14T09:15:26;26.50;75.10
52743;DHT22;55583;53.012;6.556;2022-08-14T09:17:53;26.60;74.20
52743;DHT22;55583;53.012;6.556;2022-08-14T09:20:19;26.80;73.90
52743;DHT22;55583;53.012;6.556;2022-08-14T09:22:46;26.90;73.30
52743;DHT22;55583;53.012;6.556;2022-08-14T09:25:12;27.10;73.00
52743;DHT22;55583;53.012;6.556;2022-08-14T09:27:38;27.20;73.10
52743;DHT22;55583;53.012;6.556;2022-08-14T09:30:05;27.60;72.40
52743;DHT22;55583;53.012;6.556;2022-08-14T09:32:43;28.80;70.30
52743;DHT22;55583;53.012;6.556;2022-08-14T09:38:14;33.30;59.90
52743;DHT22;55583;53.012;6.556;2022-08-14T09:43:29;36.00;51.20
52743;DHT22;55583;53.012;6.556;2022-08-14T09:45:57;37.10;49.00
52743;DHT22;55583;53.012;6.556;2022-08-14T09:48:26;38.10;48.30
52743;DHT22;55583;53.012;6.556;2022-08-14T09:50:56;38.20;45.80
52743;DHT22;55583;53.012;6.556;2022-08-14T09:56:03;39.20;44.50
52743;DHT22;55583;53.012;6.556;2022-08-14T09:58:42;39.90;43.70
52743;DHT22;55583;53.012;6.556;2022-08-14T10:01:17;40.60;41.60
52743;DHT22;55583;53.012;6.556;2022-08-14T10:06:19;41.60;40.70
52743;DHT22;55583;53.012;6.556;2022-08-14T10:08:51;42.00;40.10
52743;DHT22;55583;53.012;6.556;2022-08-14T10:11:20;42.30;38.80
52743;DHT22;55583;53.012;6.556;2022-08-14T10:13:47;42.50;39.50
52743;DHT22;55583;53.012;6.556;2022-08-14T10:16:16;42.80;39.00
52743;DHT22;55583;53.012;6.556;2022-08-14T10:18:42;43.20;38.60
52743;DHT22;55583;53.012;6.556;2022-08-14T10:21:14;43.00;38.20
52743;DHT22;55583;53.012;6.556;2022-08-14T10:23:45;43.00;38.20
52743;DHT22;55583;53.012;6.556;2022-08-14T10:26:16;43.30;38.40
52743;DHT22;55583;53.012;6.556;2022-08-14T10:28:47;43.70;37.40
52743;DHT22;55583;53.012;6.556;2022-08-14T10:31:21;44.00;37.10
52743;DHT22;55583;53.012;6.556;2022-08-14T10:34:07;44.20;37.80
52743;DHT22;55583;53.012;6.556;2022-08-14T10:36:36;44.90;36.20
52743;DHT22;55583;53.012;6.556;2022-08-14T10:39:28;45.10;36.60
52743;DHT22;55583;53.012;6.556;2022-08-14T10:42:06;45.10;35.70
52743;DHT22;55583;53.012;6.556;2022-08-14T10:44:34;45.10;36.10
52743;DHT22;55583;53.012;6.556;2022-08-14T10:47:01;45.40;35.40
52743;DHT22;55583;53.012;6.556;2022-08-14T10:49:32;45.60;35.20
52743;DHT22;55583;53.012;6.556;2022-08-14T10:52:07;45.60;35.10
52743;DHT22;55583;53.012;6.556;2022-08-14T10:54:36;45.70;35.40
52743;DHT22;55583;53.012;6.556;2022-08-14T10:57:22;45.80;35.20
52743;DHT22;55583;53.012;6.556;2022-08-14T10:59:59;46.00;34.90
52743;DHT22;55583;53.012;6.556;2022-08-14T11:02:35;45.70;35.00
52743;DHT22;55583;53.012;6.556;2022-08-14T11:05:11;45.40;35.10
52743;DHT22;55583;53.012;6.556;2022-08-14T11:07:40;45.10;34.90
52743;DHT22;55583;53.012;6.556;2022-08-14T11:10:09;44.70;35.90
52743;DHT22;55583;53.012;6.556;2022-08-14T11:12:47;44.70;35.10
52743;DHT22;55583;53.012;6.556;2022-08-14T11:15:21;44.90;35.30
52743;DHT22;55583;53.012;6.556;2022-08-14T11:17:49;45.30;35.40
52743;DHT22;55583;53.012;6.556;2022-08-14T11:20:19;45.20;34.90
52743;DHT22;55583;53.012;6.556;2022-08-14T11:22:45;45.00;35.00
52743;DHT22;55583;53.012;6.556;2022-08-14T11:25:13;45.00;35.10
52743;DHT22;55583;53.012;6.556;2022-08-14T11:27:44;45.50;35.10
52743;DHT22;55583;53.012;6.556;2022-08-14T11:30:12;46.10;34.50
52743;DHT22;55583;53.012;6.556;2022-08-14T11:32:39;46.40;34.50
52743;DHT22;55583;53.012;6.556;2022-08-14T11:35:10;46.40;34.10
52743;DHT22;55583;53.012;6.556;2022-08-14T11:37:36;46.40;34.60
52743;DHT22;55583;53.012;6.556;2022-08-14T11:40:04;46.40;34.50
52743;DHT22;55583;53.012;6.556;2022-08-14T11:42:39;46.60;34.30
52743;DHT22;55583;53.012;6.556;2022-08-14T11:45:05;46.70;34.10
52743;DHT22;55583;53.012;6.556;2022-08-14T11:47:36;46.90;33.90
52743;DHT22;55583;53.012;6.556;2022-08-14T11:50:14;46.90;34.40
52743;DHT22;55583;53.012;6.556;2022-08-14T11:52:42;47.30;33.80
52743;DHT22;55583;53.012;6.556;2022-08-14T11:55:10;47.50;34.10
52743;DHT22;55583;53.012;6.556;2022-08-14T11:57:43;47.40;33.60
52743;DHT22;55583;53.012;6.556;2022-08-14T12:00:15;47.40;33.60
52743;DHT22;55583;53.012;6.556;2022-08-14T12:02:58;46.10;34.20
52743;DHT22;55583;53.012;6.556;2022-08-14T12:05:35;45.30;34.80
52743;DHT22;55583;53.012;6.556;2022-08-14T12:08:03;44.40;35.50
52743;DHT22;55583;53.012;6.556;2022-08-14T12:10:41;43.70;36.20
52743;DHT22;55583;53.012;6.556;2022-08-14T12:13:15;43.80;35.90
52743;DHT22;55583;53.012;6.556;2022-08-14T12:15:43;44.20;35.70
52743;DHT22;55583;53.012;6.556;2022-08-14T12:18:10;44.60;35.10
52743;DHT22;55583;53.012;6.556;2022-08-14T12:20:38;44.90;35.30
52743;DHT22;55583;53.012;6.556;2022-08-14T12:23:06;45.10;35.30
52743;DHT22;55583;53.012;6.556;2022-08-14T12:25:33;45.30;35.20
52743;DHT22;55583;53.012;6.556;2022-08-14T12:28:02;45.30;35.00
52743;DHT22;55583;53.012;6.556;2022-08-14T12:30:37;45.40;34.70
52743;DHT22;55583;53.012;6.556;2022-08-14T12:33:05;45.60;34.80
52743;DHT22;55583;53.012;6.556;2022-08-14T12:35:41;45.70;34.70
52743;DHT22;55583;53.012;6.556;2022-08-14T12:38:08;45.60;34.70
52743;DHT22;55583;53.012;6.556;2022-08-14T12:40:51;45.70;34.60
52743;DHT22;55583;53.012;6.556;2022-08-14T12:43:17;45.90;35.00
52743;DHT22;55583;53.012;6.556;2022-08-14T12:45:49;46.10;34.40
52743;DHT22;55583;53.012;6.556;2022-08-14T12:48:16;46.10;34.40
52743;DHT22;55583;53.012;6.556;2022-08-14T12:50:42;46.20;34.30
52743;DHT22;55583;53.012;6.556;2022-08-14T12:53:09;45.90;34.60
52743;DHT22;55583;53.012;6.556;2022-08-14T12:55:39;45.60;35.10
52743;DHT22;55583;53.012;6.556;2022-08-14T12:58:06;45.20;35.00
52743;DHT22;55583;53.012;6.556;2022-08-14T13:00:36;44.60;35.30
52743;DHT22;55583;53.012;6.556;2022-08-14T13:03:03;44.30;35.80
52743;DHT22;55583;53.012;6.556;2022-08-14T13:05:32;44.60;35.50
52743;DHT22;55583;53.012;6.556;2022-08-14T13:08:01;44.70;35.20
52743;DHT22;55583;53.012;6.556;2022-08-14T13:10:33;44.90;35.40
52743;DHT22;55583;53.012;6.556;2022-08-14T13:13:00;45.10;35.30
52743;DHT22;55583;53.012;6.556;2022-08-14T13:15:26;45.20;35.00
52743;DHT22;55583;53.012;6.556;2022-08-14T13:17:54;45.20;34.60
52743;DHT22;55583;53.012;6.556;2022-08-14T13:20:24;44.80;34.70
52743;DHT22;55583;53.012;6.556;2022-08-14T13:22:50;44.40;34.70
52743;DHT22;55583;53.012;6.556;2022-08-14T13:25:18;43.80;35.60
52743;DHT22;55583;53.012;6.556;2022-08-14T13:27:48;43.50;35.80
52743;DHT22;55583;53.012;6.556;2022-08-14T13:30:15;43.70;36.20
52743;DHT22;55583;53.012;6.556;2022-08-14T13:32:43;43.60;36.10
52743;DHT22;55583;53.012;6.556;2022-08-14T13:35:14;43.80;36.00
52743;DHT22;55583;53.012;6.556;2022-08-14T13:37:41;44.20;35.60
52743;DHT22;55583;53.012;6.556;2022-08-14T13:40:10;44.40;35.90
52743;DHT22;55583;53.012;6.556;2022-08-14T13:42:41;44.40;35.70
52743;DHT22;55583;53.012;6.556;2022-08-14T13:45:07;44.40;35.30
52743;DHT22;55583;53.012;6.556;2022-08-14T13:47:33;44.40;35.50
52743;DHT22;55583;53.012;6.556;2022-08-14T13:50:02;44.00;35.40
52743;DHT22;55583;53.012;6.556;2022-08-14T13:55:29;43.70;36.10
52743;DHT22;55583;53.012;6.556;2022-08-14T13:58:00;43.50;35.60
52743;DHT22;55583;53.012;6.556;2022-08-14T14:00:26;43.20;36.00
52743;DHT22;55583;53.012;6.556;2022-08-14T14:02:53;42.50;36.20
52743;DHT22;55583;53.012;6.556;2022-08-14T14:05:21;41.90;37.00
52743;DHT22;55583;53.012;6.556;2022-08-14T14:07:50;40.90;37.60
52743;DHT22;55583;53.012;6.556;2022-08-14T14:10:18;40.20;38.40
52743;DHT22;55583;53.012;6.556;2022-08-14T14:12:47;39.70;38.60
52743;DHT22;55583;53.012;6.556;2022-08-14T14:15:17;39.70;38.70
52743;DHT22;55583;53.012;6.556;2022-08-14T14:17:44;40.10;38.80
52743;DHT22;55583;53.012;6.556;2022-08-14T14:20:14;40.60;38.20
52743;DHT22;55583;53.012;6.556;2022-08-14T14:22:42;41.30;37.80
52743;DHT22;55583;53.012;6.556;2022-08-14T14:25:12;41.70;37.50
52743;DHT22;55583;53.012;6.556;2022-08-14T14:27:40;41.90;37.60
52743;DHT22;55583;53.012;6.556;2022-08-14T14:30:07;42.20;37.20
52743;DHT22;55583;53.012;6.556;2022-08-14T14:32:36;42.20;36.60
52743;DHT22;55583;53.012;6.556;2022-08-14T14:35:08;42.40;36.90
52743;DHT22;55583;53.012;6.556;2022-08-14T14:37:38;42.50;36.60
52743;DHT22;55583;53.012;6.556;2022-08-14T14:40:04;42.60;37.00
52743;DHT22;55583;53.012;6.556;2022-08-14T14:42:31;42.60;36.40
52743;DHT22;55583;53.012;6.556;2022-08-14T14:45:20;42.50;36.50
52743;DHT22;55583;53.012;6.556;2022-08-14T14:47:51;42.00;36.90
52743;DHT22;55583;53.012;6.556;2022-08-14T14:50:17;41.30;36.80
52743;DHT22;55583;53.012;6.556;2022-08-14T14:52:44;41.00;37.10
52743;DHT22;55583;53.012;6.556;2022-08-14T14:55:11;41.10;37.50
52743;DHT22;55583;53.012;6.556;2022-08-14T14:57:38;41.30;37.40
52743;DHT22;55583;53.012;6.556;2022-08-14T15:00:13;41.40;37.30
52743;DHT22;55583;53.012;6.556;2022-08-14T15:02:42;41.10;37.20
52743;DHT22;55583;53.012;6.556;2022-08-14T15:05:09;40.60;37.70
52743;DHT22;55583;53.012;6.556;2022-08-14T15:07:36;40.10;38.10
52743;DHT22;55583;53.012;6.556;2022-08-14T15:10:04;39.50;38.30
52743;DHT22;55583;53.012;6.556;2022-08-14T15:12:30;38.90;38.90
52743;DHT22;55583;53.012;6.556;2022-08-14T15:14:55;38.40;39.30
52743;DHT22;55583;53.012;6.556;2022-08-14T15:17:21;38.00;39.80
52743;DHT22;55583;53.012;6.556;2022-08-14T15:19:48;37.70;40.70
52743;DHT22;55583;53.012;6.556;2022-08-14T15:22:14;37.40;40.80
52743;DHT22;55583;53.012;6.556;2022-08-14T15:24:40;37.30;42.00
52743;DHT22;55583;53.012;6.556;2022-08-14T15:27:06;37.10;41.30
52743;DHT22;55583;53.012;6.556;2022-08-14T15:29:33;37.20;41.10
52743;DHT22;55583;53.012;6.556;2022-08-14T15:32:06;37.40;41.40
52743;DHT22;55583;53.012;6.556;2022-08-14T15:34:33;37.70;41.00
52743;DHT22;55583;53.012;6.556;2022-08-14T15:37:00;37.80;41.20
52743;DHT22;55583;53.012;6.556;2022-08-14T15:39:26;37.60;41.90
52743;DHT22;55583;53.012;6.556;2022-08-14T15:41:53;37.50;41.50
52743;DHT22;55583;53.012;6.556;2022-08-14T15:44:20;37.20;41.90
52743;DHT22;55583;53.012;6.556;2022-08-14T15:46:48;36.90;41.90
52743;DHT22;55583;53.012;6.556;2022-08-14T15:49:13;36.70;42.50
52743;DHT22;55583;53.012;6.556;2022-08-14T15:51:39;36.40;43.00
52743;DHT22;55583;53.012;6.556;2022-08-14T15:54:05;36.30;43.40
52743;DHT22;55583;53.012;6.556;2022-08-14T15:56:30;36.10;43.30